Time;durP1;ratioP1;P1;durP2;ratioP2;P2;SDS_P1;SDS_P2;PMS_P1;PMS_P2;Temp;Humidity;BMP_temperature;BMP_pressure;BME280_temperature;BME280_humidity;BME280_pressure;Samples;Min_cycle;Max_cycle;Signal;HPM_P1;HPM_P2
2022/06/14 00:02:56;;;;;;;6.60;4.90;;;;;;;25.50;52.62;100528.34;107006;1281;76342;-84
2022/06/14 00:05:21;;;;;;;6.00;5.10;;;;;;;25.50;52.82;100529.42;107113;1281;62181;-82
2022/06/14 00:07:47;;;;;;;6.50;4.70;;;;;;;25.51;52.73;100534.21;106940;1283;62031;-83
2022/06/14 00:10:13;;;;;;;6.30;4.80;;;;;;;25.49;52.62;100531.80;107272;1281;62062;-83
2022/06/14 00:12:39;;;;;;;6.60;4.90;;;;;;;25.50;52.64;100535.56;107160;1281;62092;-83
2022/06/14 00:15:05;;;;;;;5.80;4.60;;;;;;;25.49;52.69;100531.98;107048;1281;62168;-83
2022/06/14 00:17:30;;;;;;;7.00;5.00;;;;;;;25.50;52.75;100526.91;107258;1281;62017;-84
2022/06/14 00:19:56;;;;;;;6.10;5.10;;;;;;;25.50;52.67;100524.02;107128;1283;62057;-82
2022/06/14 00:22:22;;;;;;;5.80;4.30;;;;;;;25.49;52.72;100516.34;106869;1283;62062;-83
2022/06/14 00:24:47;;;;;;;5.70;4.70;;;;;;;25.49;52.85;100512.91;106890;1283;62061;-84
2022/06/14 00:27:13;;;;;;;6.70;4.50;;;;;;;25.49;52.74;100514.34;107194;1283;62084;-83
2022/06/14 00:29:39;;;;;;;5.70;4.90;;;;;;;25.49;52.77;100508.60;107129;1283;59519;-83
2022/06/14 00:32:05;;;;;;;5.30;4.50;;;;;;;25.49;52.67;100503.75;107226;1283;62062;-83
2022/06/14 00:34:30;;;;;;;5.80;4.90;;;;;;;25.49;52.76;100501.80;107236;1281;62063;-83
2022/06/14 00:36:56;;;;;;;6.10;4.70;;;;;;;25.49;52.88;100503.39;106839;1283;62187;-83
2022/06/14 00:39:22;;;;;;;6.40;5.00;;;;;;;25.48;52.84;100500.38;106963;1284;62078;-82
2022/06/14 00:41:50;;;;;;;6.80;4.70;;;;;;;25.49;52.88;100498.34;106854;1283;62055;-84
2022/06/14 00:44:20;;;;;;;6.80;4.60;;;;;;;25.48;52.83;100498.77;107222;1283;62082;-81
2022/06/14 00:46:54;;;;;;;5.50;4.50;;;;;;;25.48;52.93;100502.05;107244;1283;75487;-83
2022/06/14 00:49:27;;;;;;;7.70;4.80;;;;;;;25.48;52.94;100504.73;106767;1285;62897;-82
2022/06/14 00:52:03;;;;;;;5.40;4.50;;;;;;;25.48;52.88;100504.56;106821;1284;62149;-82
2022/06/14 00:54:35;;;;;;;7.10;4.70;;;;;;;25.48;52.90;100507.06;107007;1283;72947;-82
2022/06/14 00:57:22;;;;;;;8.40;4.80;;;;;;;25.48;53.08;100503.13;106834;1283;75521;-85
2022/06/14 00:59:50;;;;;;;6.40;4.90;;;;;;;25.48;53.00;100499.69;107213;1283;62494;-82
2022/06/14 01:02:23;;;;;;;6.10;4.40;;;;;;;25.48;53.03;100495.40;106953;1283;62069;-83
2022/06/14 01:04:48;;;;;;;6.50;5.10;;;;;;;25.48;52.76;100497.56;107173;1283;73713;-84
2022/06/14 01:07:22;;;;;;;8.20;4.90;;;;;;;25.48;53.02;100497.70;107228;1284;62059;-82
2022/06/14 01:09:50;;;;;;;7.40;5.00;;;;;;;25.48;52.98;100495.38;107218;1283;61980;-83
2022/06/14 01:12:26;;;;;;;5.80;4.90;;;;;;;25.47;52.89;100495.59;107188;1284;62165;-82
2022/06/14 01:15:24;;;;;;;5.90;4.60;;;;;;;25.48;52.96;100492.52;107152;1284;73546;-83
2022/06/14 01:17:53;;;;;;;6.20;4.80;;;;;;;25.47;53.08;100492.62;107100;1283;76461;-82
2022/06/14 01:20:20;;;;;;;7.40;4.70;;;;;;;25.47;52.91;100493.86;107139;1283;62055;-83
2022/06/14 01:22:45;;;;;;;7.20;4.50;;;;;;;25.47;52.88;100492.23;106828;1284;62064;-81
2022/06/14 01:25:11;;;;;;;6.30;4.40;;;;;;;25.46;52.87;100493.18;107170;1284;62187;-83
2022/06/14 01:27:38;;;;;;;5.80;5.00;;;;;;;25.47;52.96;100490.27;107170;1283;62092;-83
2022/06/14 01:30:10;;;;;;;5.30;4.50;;;;;;;25.47;52.81;100490.96;107157;1283;62548;-82
2022/06/14 01:32:39;;;;;;;6.20;4.50;;;;;;;25.47;52.94;100491.52;107237;1281;62250;-83
2022/06/14 01:35:08;;;;;;;6.20;4.50;;;;;;;25.46;52.91;100493.02;106900;1284;72723;-82
2022/06/14 01:37:34;;;;;;;5.70;4.80;;;;;;;25.47;52.99;100495.11;107258;1283;76570;-83
2022/06/14 01:40:01;;;;;;;6.40;4.40;;;;;;;25.47;53.12;100495.45;107027;1283;59466;-83
2022/06/14 01:42:36;;;;;;;5.70;4.30;;;;;;;25.46;52.89;100494.43;106888;1281;62124;-83
2022/06/14 01:45:32;;;;;;;5.90;4.70;;;;;;;25.46;53.05;100494.84;107251;1281;72747;-83
2022/06/14 01:48:14;;;;;;;6.10;4.50;;;;;;;25.46;53.01;100490.50;107249;1281;76273;-82
2022/06/14 01:54:13;;;;;;;5.80;4.50;;;;;;;25.45;53.00;100480.13;106951;1284;62051;-82
2022/06/14 01:56:53;;;;;;;5.40;4.30;;;;;;;25.45;52.93;100481.37;107010;1284;72798;-85
2022/06/14 01:59:32;;;;;;;5.70;4.50;;;;;;;25.46;52.91;100481.92;107230;1281;76656;-83
2022/06/14 02:02:06;;;;;;;6.90;4.80;;;;;;;25.45;53.06;100483.58;107248;1281;62400;-82
2022/06/14 02:04:37;;;;;;;6.50;4.80;;;;;;;25.45;52.92;100483.09;107247;1281;61839;-82
2022/06/14 02:07:33;;;;;;;5.60;4.70;;;;;;;25.45;52.87;100485.20;107131;1284;73782;-83
2022/06/14 02:10:11;;;;;;;6.10;4.80;;;;;;;25.45;53.01;100492.59;107200;1283;76698;-83
2022/06/14 02:12:39;;;;;;;7.00;5.10;;;;;;;25.45;52.84;100497.79;106857;1286;61977;-83
2022/06/14 02:15:10;;;;;;;6.50;4.70;;;;;;;25.45;53.03;100497.64;106808;1284;61948;-82
2022/06/14 02:17:41;;;;;;;6.20;4.50;;;;;;;25.45;52.87;100497.31;106932;1284;73869;-83
2022/06/14 02:20:10;;;;;;;5.80;4.70;;;;;;;25.44;52.92;100499.30;107141;1283;76921;-83
2022/06/14 02:22:49;;;;;;;5.70;4.60;;;;;;;25.45;52.86;100499.81;106720;1284;62004;-81
2022/06/14 02:25:17;;;;;;;;;;;;;;;25.45;53.07;100498.92;106838;1284;62127;-82
2022/06/14 02:27:50;;;;;;;6.10;4.60;;;;;;;25.42;53.12;100500.36;107131;1283;72757;-83
2022/06/14 02:30:24;;;;;;;7.10;4.80;;;;;;;25.43;52.96;100501.39;106514;1284;74143;-83
2022/06/14 02:33:21;;;;;;;5.20;4.40;;;;;;;25.43;52.94;100499.55;106877;1283;62046;-83
2022/06/14 02:35:51;;;;;;;5.60;4.40;;;;;;;25.43;52.91;100505.33;107018;1283;62066;-82
2022/06/14 02:38:26;;;;;;;5.60;4.70;;;;;;;25.43;53.02;100504.64;107250;1281;72453;-83
2022/06/14 02:40:56;;;;;;;5.50;4.40;;;;;;;25.44;53.01;100507.44;107216;1281;76678;-83
2022/06/14 02:43:30;;;;;;;5.70;4.90;;;;;;;25.44;52.99;100509.80;107143;1281;62129;-83
2022/06/14 02:45:59;;;;;;;5.00;4.20;;;;;;;25.44;52.99;100509.47;107261;1281;61930;-84
2022/06/14 02:48:46;;;;;;;5.60;4.90;;;;;;;25.44;52.91;100506.89;106878;1283;72872;-82
2022/06/14 02:51:17;;;;;;;5.60;4.30;;;;;;;25.44;52.93;100507.27;107203;1281;75445;-84
2022/06/14 02:53:48;;;;;;;5.60;4.80;;;;;;;25.44;53.17;100504.02;106920;1283;61973;-83
2022/06/14 02:56:37;;;;;;;6.20;4.80;;;;;;;25.44;52.99;100507.23;107219;1281;61993;-83
2022/06/14 02:59:10;;;;;;;5.70;4.60;;;;;;;25.44;53.06;100511.42;106879;1284;72600;-86
2022/06/14 03:01:49;;;;;;;6.30;4.70;;;;;;;25.44;53.21;100518.23;106887;1284;75562;-83
2022/06/14 03:04:37;;;;;;;6.70;4.40;;;;;;;25.45;53.15;100523.39;107238;1281;60703;-82
2022/06/14 03:07:07;;;;;;;6.50;4.90;;;;;;;25.44;53.03;100525.23;107066;1283;62758;-84
2022/06/14 03:09:33;;;;;;;5.30;4.30;;;;;;;25.45;53.00;100528.28;107094;1283;72626;-82
2022/06/14 03:12:09;;;;;;;6.40;5.50;;;;;;;25.45;52.81;100532.61;107226;1283;62155;-82
2022/06/14 03:14:56;;;;;;;6.30;5.10;;;;;;;25.44;52.92;100531.19;107218;1283;61897;-83
2022/06/14 03:17:27;;;;;;;8.20;6.30;;;;;;;25.43;52.76;100532.21;107139;1281;62081;-83
2022/06/14 03:20:16;;;;;;;8.30;6.40;;;;;;;25.42;52.67;100535.00;107211;1281;73997;-83
2022/06/14 03:23:07;;;;;;;8.40;6.60;;;;;;;25.41;52.57;100538.20;107158;1281;75528;-83
2022/06/14 03:25:47;;;;;;;8.60;6.50;;;;;;;25.37;52.32;100537.98;106666;1283;61960;-83
2022/06/14 03:28:46;;;;;;;9.90;6.80;;;;;;;25.32;52.25;100537.16;107250;1281;61990;-82
2022/06/14 03:31:36;;;;;;;8.90;6.80;;;;;;;25.27;52.13;100541.41;107137;1281;72265;-83
2022/06/14 03:34:22;;;;;;;32.50;8.80;;;;;;;25.24;51.83;100546.73;107135;1283;77413;-82
2022/06/14 03:36:48;;;;;;;19.70;8.40;;;;;;;25.20;51.80;100546.52;107267;1281;61921;-83
2022/06/14 03:39:35;;;;;;;20.80;8.00;;;;;;;25.17;51.75;100546.99;106874;1283;62068;-83
2022/06/14 03:42:01;;;;;;;14.80;7.90;;;;;;;25.14;51.61;100544.23;107089;1283;72820;-83
2022/06/14 03:44:28;;;;;;;11.50;8.10;;;;;;;25.13;51.59;100546.34;107082;1281;62215;-83
2022/06/14 03:47:16;;;;;;;13.10;9.00;;;;;;;25.11;51.52;100548.14;107161;1282;62075;-82
2022/06/14 03:49:45;;;;;;;16.50;9.60;;;;;;;25.09;51.50;100550.30;107173;1283;61947;-83
2022/06/14 03:52:18;;;;;;;16.40;10.30;;;;;;;25.07;51.37;100551.48;106938;1283;73619;-83
2022/06/14 03:54:59;;;;;;;13.70;10.70;;;;;;;25.06;51.44;100550.89;107209;1283;76862;-83
2022/06/14 03:57:41;;;;;;;14.00;10.80;;;;;;;25.05;51.30;100551.88;107268;1279;61950;-85
2022/06/14 04:00:47;;;;;;;12.50;10.40;;;;;;;25.04;51.32;100550.35;107267;1281;62057;-85
2022/06/14 04:03:32;;;;;;;14.40;9.90;;;;;;;25.03;51.25;100553.14;106883;1283;72801;-88
2022/06/14 04:06:18;;;;;;;13.40;9.30;;;;;;;25.03;51.23;100554.30;107224;1283;75432;-84
2022/06/14 04:09:21;;;;;;;14.90;9.20;;;;;;;24.98;51.15;100559.19;107237;1283;62166;-85
2022/06/14 04:12:06;;;;;;;16.80;9.70;;;;;;;24.96;51.21;100559.92;107213;1283;61938;-85
2022/06/14 04:14:50;;;;;;;13.90;9.20;;;;;;;24.97;51.18;100561.66;107161;1283;73994;-87
2022/06/14 04:17:21;;;;;;;14.50;8.90;;;;;;;24.97;51.31;100565.95;107075;1283;75992;-85
2022/06/14 04:20:06;;;;;;;13.40;8.10;;;;;;;24.98;51.22;100568.96;106912;1283;61932;-84
2022/06/14 04:23:09;;;;;;;11.30;7.60;;;;;;;24.98;51.25;100566.98;107217;1283;61927;-83
2022/06/14 04:25:53;;;;;;;12.30;8.20;;;;;;;24.99;51.21;100569.59;107119;1283;72790;-85
2022/06/14 04:28:42;;;;;;;11.80;7.80;;;;;;;25.00;51.26;100575.20;106830;1284;75382;-83
2022/06/14 04:31:11;;;;;;;;;;;;;;;25.00;51.24;100572.73;107242;1281;62079;-82
2022/06/14 04:33:46;;;;;;;10.00;8.00;;;;;;;24.97;51.12;100573.72;106917;1284;62051;-81
2022/06/14 04:36:16;;;;;;;11.00;7.50;;;;;;;24.98;51.15;100573.31;107052;1283;72639;-84
2022/06/14 04:38:47;;;;;;;16.30;8.60;;;;;;;24.98;51.15;100572.41;107150;1281;75383;-84
2022/06/14 04:41:16;;;;;;;16.30;8.10;;;;;;;24.98;51.18;100577.27;106868;1281;62069;-83
2022/06/14 04:43:47;;;;;;;;;;;;;;;24.98;51.17;100575.92;106873;1283;60698;-83
2022/06/14 04:46:14;;;;;;;11.10;8.20;;;;;;;24.98;51.12;100577.61;107173;1281;73778;-84
2022/06/14 04:48:51;;;;;;;10.40;8.20;;;;;;;24.99;50.94;100579.97;106959;1283;75688;-83
2022/06/14 04:51:56;;;;;;;10.20;7.90;;;;;;;25.01;50.95;100581.30;107109;1283;61950;-83
2022/06/14 04:54:28;;;;;;;11.60;8.50;;;;;;;25.02;50.84;100582.65;106408;1287;61948;-85
2022/06/14 04:57:27;;;;;;;13.70;8.00;;;;;;;25.03;50.92;100583.02;106220;1287;72795;-83
2022/06/14 04:59:57;;;;;;;;;;;;;;;25.06;50.87;100589.41;105985;1287;75659;-83
2022/06/14 05:02:29;;;;;;;11.90;8.10;;;;;;;25.08;50.92;100591.48;106255;1287;62290;-82
2022/06/14 05:04:57;;;;;;;11.60;7.60;;;;;;;25.13;50.90;100594.63;106106;1287;61968;-82
2022/06/14 05:07:37;;;;;;;12.50;8.20;;;;;;;25.16;50.65;100592.11;106106;1287;73646;-82
2022/06/14 05:10:11;;;;;;;12.30;8.80;;;;;;;25.19;50.70;100593.31;106199;1287;76862;-82
2022/06/14 05:12:46;;;;;;;12.50;8.70;;;;;;;25.20;50.73;100594.83;106321;1287;62081;-82
2022/06/14 05:15:19;;;;;;;13.80;8.80;;;;;;;25.19;50.63;100596.52;106345;1287;61951;-83
2022/06/14 05:18:03;;;;;;;15.60;8.60;;;;;;;25.20;50.56;100596.76;106239;1287;72876;-84
2022/06/14 05:20:46;;;;;;;15.90;8.90;;;;;;;25.23;50.55;100598.15;105966;1287;76533;-84
2022/06/14 05:23:16;;;;;;;16.40;9.00;;;;;;;25.24;50.49;100599.28;106218;1287;61980;-83
2022/06/14 05:25:47;;;;;;;14.10;8.40;;;;;;;25.23;50.51;100603.05;106254;1287;62052;-84
2022/06/14 05:28:15;;;;;;;14.40;8.30;;;;;;;25.23;50.49;100601.42;106634;1283;72847;-82
2022/06/14 05:30:47;;;;;;;12.80;8.50;;;;;;;25.24;50.46;100602.77;106767;1281;76683;-82
2022/06/14 05:33:54;;;;;;;12.40;8.70;;;;;;;25.25;50.50;100603.55;107020;1283;61983;-83
2022/06/14 05:36:23;;;;;;;11.60;7.60;;;;;;;25.26;50.54;100604.20;106633;1283;60463;-82
2022/06/14 05:39:17;;;;;;;11.80;8.20;;;;;;;25.28;50.59;100607.76;106733;1283;73676;-87
2022/06/14 05:41:48;;;;;;;12.30;8.00;;;;;;;25.30;50.34;100608.33;106694;1283;76351;-83
2022/06/14 05:44:19;;;;;;;12.50;7.70;;;;;;;25.31;50.35;100606.99;107069;1283;62117;-82
2022/06/14 05:47:09;;;;;;;11.70;8.00;;;;;;;25.31;50.31;100607.13;106759;1283;61964;-85
2022/06/14 05:49:36;;;;;;;11.60;7.40;;;;;;;25.32;50.36;100607.62;106719;1283;73588;-85
2022/06/14 05:52:25;;;;;;;11.30;6.80;;;;;;;25.33;50.20;100607.70;106736;1283;75371;-85
2022/06/14 05:54:58;;;;;;;10.80;6.70;;;;;;;25.35;50.20;100605.95;106488;1285;62016;-84
2022/06/14 05:57:43;;;;;;;10.60;6.70;;;;;;;25.36;50.23;100606.01;106829;1283;60684;-85
2022/06/14 06:00:14;;;;;;;12.70;6.80;;;;;;;25.37;50.25;100609.71;106710;1283;74319;-85
2022/06/14 06:03:12;;;;;;;10.60;6.70;;;;;;;25.37;50.04;100610.40;107129;1281;76541;-83
2022/06/14 06:05:40;;;;;;;8.00;6.50;;;;;;;25.38;50.05;100611.44;107053;1281;62062;-84
2022/06/14 06:08:13;;;;;;;9.20;6.40;;;;;;;25.39;50.12;100616.02;106894;1281;61920;-84
2022/06/14 06:10:41;;;;;;;13.50;7.20;;;;;;;25.39;50.02;100616.33;107125;1281;72815;-84
2022/06/14 06:13:15;;;;;;;10.20;7.40;;;;;;;25.39;50.10;100618.84;107005;1281;76668;-85
2022/06/14 06:15:45;;;;;;;10.00;7.00;;;;;;;25.39;49.84;100624.63;106840;1282;293306;-84
2022/06/14 06:18:35;;;;;;;12.10;6.90;;;;;;;25.39;49.73;100624.06;106737;1283;62887;-83
2022/06/14 06:21:21;;;;;;;9.70;6.20;;;;;;;25.39;49.71;100625.68;106753;1283;74450;-83
2022/06/14 06:23:57;;;;;;;9.30;6.40;;;;;;;25.40;49.75;100631.05;106926;1282;76349;-83
2022/06/14 06:26:23;;;;;;;9.90;6.90;;;;;;;25.40;49.90;100631.04;106409;1283;62746;-82
2022/06/14 06:28:55;;;;;;;8.50;6.50;;;;;;;25.40;49.77;100633.90;106852;1283;62073;-82
2022/06/14 06:31:24;;;;;;;10.30;6.40;;;;;;;25.40;49.66;100633.30;106505;1284;74207;-82
2022/06/14 06:33:54;;;;;;;8.60;6.20;;;;;;;25.41;49.70;100641.00;106693;1283;76423;-83
2022/06/14 06:36:38;;;;;;;8.60;6.10;;;;;;;25.42;49.69;100642.95;106722;1283;61472;-83
2022/06/14 06:39:41;;;;;;;7.70;6.00;;;;;;;25.42;49.65;100645.46;107126;1283;61840;-83
2022/06/14 06:42:28;;;;;;;10.80;6.90;;;;;;;25.42;49.64;100644.71;107049;1283;72907;-83
2022/06/14 06:44:59;;;;;;;12.60;6.90;;;;;;;25.40;49.68;100646.45;107092;1282;76831;-84
2022/06/14 06:47:45;;;;;;;9.80;5.80;;;;;;;25.40;49.60;100646.85;106948;1282;61970;-81
2022/06/14 06:50:43;;;;;;;12.60;7.20;;;;;;;25.41;49.60;100646.48;106817;1283;62088;-83
2022/06/14 06:53:15;;;;;;;9.00;6.20;;;;;;;25.41;49.65;100644.09;106694;1283;73854;-84
2022/06/14 06:55:57;;;;;;;11.70;6.50;;;;;;;25.42;49.68;100642.77;106548;1283;76508;-83
2022/06/14 06:58:29;;;;;;;9.70;6.20;;;;;;;25.42;49.65;100642.89;106777;1283;61975;-85
2022/06/14 07:00:57;;;;;;;16.10;6.30;;;;;;;25.43;49.48;100644.65;106875;1283;61996;-83
2022/06/14 07:03:45;;;;;;;14.20;6.10;;;;;;;25.41;49.42;100645.52;106878;1283;75103;-84
2022/06/14 07:06:46;;;;;;;11.80;6.20;;;;;;;25.38;49.50;100648.83;106749;1283;76800;-84
2022/06/14 07:09:23;;;;;;;12.60;6.30;;;;;;;25.37;49.52;100654.87;107024;1281;62062;-85
2022/06/14 07:12:10;;;;;;;8.50;5.50;;;;;;;25.38;49.56;100656.42;106989;1283;62095;-84
2022/06/14 07:14:42;;;;;;;13.80;6.30;;;;;;;25.37;49.61;100660.98;106901;1283;74049;-84
2022/06/14 07:17:10;;;;;;;11.10;6.10;;;;;;;25.37;49.62;100666.05;106891;1283;75282;-84
2022/06/14 07:19:43;;;;;;;10.40;5.80;;;;;;;25.38;49.70;100669.42;106840;1283;61980;-84
2022/06/14 07:22:13;;;;;;;11.80;6.10;;;;;;;25.38;49.62;100669.96;107044;1283;62034;-84
2022/06/14 07:24:58;;;;;;;8.70;6.20;;;;;;;25.38;49.76;100676.56;106872;1283;73987;-84
2022/06/14 07:27:26;;;;;;;9.10;5.70;;;;;;;25.40;49.67;100679.49;107033;1283;76651;-84
2022/06/14 07:30:15;;;;;;;10.50;6.00;;;;;;;25.40;49.69;100677.62;106618;1283;61860;-84
2022/06/14 07:32:46;;;;;;;9.30;6.30;;;;;;;25.41;49.85;100677.23;107128;1283;61960;-82
2022/06/14 07:35:16;;;;;;;8.40;6.30;;;;;;;25.42;49.74;100679.14;106916;1283;73624;-84
2022/06/14 07:37:46;;;;;;;7.40;5.80;;;;;;;25.42;49.66;100683.07;106769;1283;75837;-83
2022/06/14 07:40:18;;;;;;;7.30;6.00;;;;;;;25.42;49.72;100677.30;106923;1283;62081;-83
2022/06/14 07:43:05;;;;;;;12.30;6.40;;;;;;;25.43;49.75;100675.98;107253;1281;61944;-84
2022/06/14 07:45:41;;;;;;;10.60;6.10;;;;;;;25.43;49.68;100675.42;107192;1281;72654;-83
2022/06/14 07:48:30;;;;;;;13.90;6.10;;;;;;;25.44;49.64;100683.09;107114;1281;75368;-83
2022/06/14 07:51:04;;;;;;;10.80;6.00;;;;;;;25.43;49.58;100681.02;107114;1281;62130;-82
2022/06/14 07:53:43;;;;;;;8.50;5.70;;;;;;;25.43;49.45;100680.44;107012;1281;62082;-83
2022/06/14 07:56:23;;;;;;;11.50;6.00;;;;;;;25.44;49.23;100682.02;107024;1281;72621;-84
2022/06/14 07:59:04;;;;;;;9.60;6.00;;;;;;;25.43;49.38;100678.30;107636;1282;75295;-83
2022/06/14 08:01:48;;;;;;;8.50;6.20;;;;;;;25.43;49.18;100677.80;106699;1283;62090;-82
2022/06/14 08:04:23;;;;;;;9.00;6.10;;;;;;;25.45;49.28;100681.20;106984;1283;62792;-82
2022/06/14 08:06:50;;;;;;;9.30;5.80;;;;;;;25.46;49.17;100681.13;106828;1283;72821;-83
2022/06/14 08:09:20;;;;;;;9.40;6.20;;;;;;;25.47;49.07;100683.15;107071;1282;75396;-82
2022/06/14 08:11:56;;;;;;;11.70;5.50;;;;;;;25.48;48.99;100686.20;107621;1282;60245;-83
2022/06/14 08:14:32;;;;;;;8.00;5.60;;;;;;;25.47;49.02;100680.34;107723;1282;59797;-83
2022/06/14 08:16:58;;;;;;;10.60;6.00;;;;;;;25.47;48.92;100679.78;107636;1283;63986;-83
2022/06/14 08:19:30;;;;;;;10.80;5.60;;;;;;;25.47;49.02;100685.31;107357;1282;62090;-83
2022/06/14 08:21:58;;;;;;;11.20;6.00;;;;;;;25.49;49.01;100688.27;106949;1282;60162;-82
2022/06/14 08:24:27;;;;;;;9.40;5.50;;;;;;;25.49;48.87;100687.53;106870;1280;61906;-83
2022/06/14 08:27:03;;;;;;;11.00;5.70;;;;;;;25.51;48.99;100692.02;106910;1281;72224;-83
2022/06/14 08:29:35;;;;;;;12.60;5.60;;;;;;;25.53;48.85;100695.80;107769;1281;75895;-82
2022/06/14 08:32:26;;;;;;;11.30;6.60;;;;;;;25.52;48.91;100694.41;107647;1281;59730;-83
2022/06/14 08:34:57;;;;;;;9.80;5.70;;;;;;;25.52;48.90;100690.27;107036;1283;60304;-82
2022/06/14 08:37:27;;;;;;;11.40;6.00;;;;;;;25.55;49.03;100695.44;107058;1283;72175;-82
2022/06/14 08:40:17;;;;;;;10.20;6.10;;;;;;;25.56;48.95;100692.43;107216;1283;74938;-82
2022/06/14 08:42:48;;;;;;;9.80;6.80;;;;;;;25.55;49.17;100691.63;106434;1283;61945;-84
2022/06/14 08:45:19;;;;;;;8.50;6.60;;;;;;;25.54;49.06;100692.61;106892;1283;61174;-83
2022/06/14 08:48:14;;;;;;;12.10;6.40;;;;;;;25.55;49.04;100691.09;106663;1283;73950;-83
2022/06/14 08:50:57;;;;;;;11.30;6.50;;;;;;;25.55;49.19;100692.71;106875;1283;75209;-83
2022/06/14 08:53:51;;;;;;;11.60;6.20;;;;;;;25.56;49.22;100692.23;106740;1283;61949;-84
2022/06/14 08:56:16;;;;;;;13.10;6.40;;;;;;;25.58;49.25;100695.51;106758;1283;61324;-84
2022/06/14 08:59:01;;;;;;;8.00;6.00;;;;;;;25.59;48.96;100693.56;106918;1283;62046;-84
2022/06/14 09:01:42;;;;;;;8.90;6.60;;;;;;;25.61;49.24;100690.01;106895;1282;76345;-82
2022/06/14 09:04:19;;;;;;;10.30;6.60;;;;;;;25.61;48.90;100687.45;106959;1283;62086;-85
2022/06/14 09:07:42;;;;;;;11.10;6.10;;;;;;;25.61;49.33;100684.58;107412;1282;60575;-83
2022/06/14 09:10:45;;;;;;;15.90;6.70;;;;;;;25.61;49.10;100687.30;106211;1287;72545;-83
2022/06/14 09:13:39;;;;;;;14.00;6.70;;;;;;;25.62;49.05;100692.83;106212;1287;75428;-84
2022/06/14 09:16:33;;;;;;;15.80;6.60;;;;;;;25.62;49.01;100687.73;106251;1287;62086;-83
2022/06/14 09:19:03;;;;;;;8.20;6.40;;;;;;;25.62;48.89;100689.55;106249;1287;60643;-84
2022/06/14 09:21:47;;;;;;;11.90;6.60;;;;;;;25.63;48.89;100690.25;106277;1287;73678;-82
2022/06/14 09:24:31;;;;;;;13.90;6.40;;;;;;;25.64;48.96;100694.21;106189;1289;76774;-82
2022/06/14 09:27:19;;;;;;;11.60;6.50;;;;;;;25.65;48.67;100695.75;106230;1287;62104;-83
2022/06/14 09:30:03;;;;;;;12.30;6.60;;;;;;;25.65;48.53;100700.08;106262;1287;62140;-83
2022/06/14 09:36:12;;;;;;;10.10;6.10;;;;;;;25.67;48.38;100701.36;106294;1287;75488;-82
2022/06/14 09:38:53;;;;;;;11.10;7.00;;;;;;;25.67;48.46;100699.54;106303;1287;61979;-82
2022/06/14 09:41:57;;;;;;;11.00;6.40;;;;;;;25.68;48.28;100699.99;106594;1283;61998;-85
2022/06/14 09:44:24;;;;;;;12.60;6.60;;;;;;;25.69;48.38;100698.98;106747;1283;72651;-85
2022/06/14 09:47:30;;;;;;;9.00;6.10;;;;;;;25.70;48.31;100699.83;106843;1283;61999;-85
2022/06/14 09:50:27;;;;;;;7.70;5.40;;;;;;;25.70;48.23;100699.66;107102;1283;62117;-87
2022/06/14 09:53:19;;;;;;;7.60;5.60;;;;;;;25.70;48.45;100691.75;107099;1281;61909;-86
2022/06/14 09:56:36;;;;;;;8.00;6.10;;;;;;;25.70;48.47;100694.60;107164;1281;73817;-85
2022/06/14 09:59:17;;;;;;;8.40;5.80;;;;;;;25.69;48.45;100687.96;106679;1281;76661;-85
2022/06/14 10:02:34;;;;;;;10.30;5.90;;;;;;;25.69;48.48;100687.05;106872;1283;62184;-86
2022/06/14 10:05:48;;;;;;;8.20;5.70;;;;;;;25.69;48.69;100687.79;106114;1289;62115;-85
2022/06/14 10:08:35;;;;;;;7.20;5.60;;;;;;;25.70;48.71;100679.45;105305;1292;73917;-84
2022/06/14 10:11:18;;;;;;;7.60;5.50;;;;;;;25.71;48.67;100673.61;105927;1289;73821;-84
2022/06/14 10:14:12;;;;;;;10.60;5.60;;;;;;;25.71;48.71;100674.32;106287;1288;62059;-85
2022/06/14 10:16:50;;;;;;;8.30;5.50;;;;;;;25.70;48.56;100663.58;106386;1289;62086;-84
2022/06/14 10:19:27;;;;;;;7.60;5.60;;;;;;;25.71;48.76;100671.02;106172;1288;73949;-83
2022/06/14 10:22:10;;;;;;;10.80;5.70;;;;;;;25.71;48.73;100664.00;106208;1289;75995;-84
2022/06/14 10:25:13;;;;;;;8.30;5.80;;;;;;;25.72;48.79;100663.06;106157;1288;62030;-83
2022/06/14 10:30:46;;;;;;;9.70;5.60;;;;;;;25.71;48.77;100660.39;106062;1289;72634;-83
2022/06/14 10:33:30;;;;;;;8.80;5.70;;;;;;;25.72;48.79;100653.29;106200;1289;75941;-83
2022/06/14 10:36:11;;;;;;;8.40;5.70;;;;;;;25.72;48.62;100654.35;106359;1289;62024;-84
2022/06/14 10:38:41;;;;;;;8.20;5.80;;;;;;;25.73;48.75;100651.41;106289;1288;62103;-84
2022/06/14 10:41:20;;;;;;;7.50;5.60;;;;;;;25.73;48.98;100653.91;106200;1288;73006;-83
2022/06/14 10:44:10;;;;;;;6.90;5.50;;;;;;;25.74;48.92;100649.54;106181;1289;75440;-83
2022/06/14 10:46:43;;;;;;;7.40;5.80;;;;;;;25.73;48.87;100650.81;107132;1281;62019;-84
2022/06/14 10:49:35;;;;;;;8.60;5.60;;;;;;;25.74;48.61;100647.89;106833;1281;61999;-83
2022/06/14 10:52:19;;;;;;;6.80;5.50;;;;;;;25.74;48.99;100645.38;107051;1281;71519;-84
2022/06/14 10:55:13;;;;;;;7.80;5.50;;;;;;;25.74;48.77;100641.71;107135;1281;75530;-83
2022/06/14 10:58:01;;;;;;;9.50;5.40;;;;;;;25.75;48.87;100641.14;107029;1283;62099;-83
2022/06/14 11:00:58;;;;;;;6.50;5.20;;;;;;;25.74;48.92;100634.67;107214;1281;62050;-84
2022/06/14 11:03:42;;;;;;;7.30;5.60;;;;;;;25.74;48.94;100630.19;106308;1287;73722;-86
2022/06/14 11:06:47;;;;;;;6.90;5.60;;;;;;;25.74;49.13;100625.11;106380;1287;76823;-83
2022/06/14 11:09:26;;;;;;;7.30;5.70;;;;;;;25.74;49.07;100613.25;106382;1287;61973;-83
2022/06/14 11:12:10;;;;;;;8.80;6.00;;;;;;;25.74;48.94;100611.31;106465;1287;61917;-86
2022/06/14 11:15:01;;;;;;;9.50;5.80;;;;;;;25.74;48.73;100614.19;106394;1287;73031;-84
2022/06/14 11:17:43;;;;;;;7.50;5.30;;;;;;;25.73;48.87;100616.38;106260;1287;75815;-84
2022/06/14 11:20:37;;;;;;;6.80;5.50;;;;;;;25.74;49.05;100620.85;106388;1287;62042;-84
2022/06/14 11:23:23;;;;;;;6.50;5.50;;;;;;;25.73;48.81;100618.57;106363;1287;62025;-83
2022/06/14 11:26:16;;;;;;;7.30;5.50;;;;;;;25.74;48.91;100613.85;106138;1287;72795;-83
2022/06/14 11:29:00;;;;;;;6.70;5.90;;;;;;;25.73;49.10;100615.16;105986;1289;75508;-83
2022/06/14 11:31:32;;;;;;;7.60;5.80;;;;;;;25.73;48.89;100616.74;106354;1287;62255;-85
2022/06/14 11:34:17;;;;;;;6.70;5.50;;;;;;;25.73;48.92;100614.64;106177;1289;62135;-84
2022/06/14 11:36:55;;;;;;;7.70;5.60;;;;;;;25.72;49.05;100613.25;106391;1287;72695;-85
2022/06/14 11:39:33;;;;;;;7.90;5.60;;;;;;;25.73;48.96;100607.83;106048;1285;76705;-84
2022/06/14 11:42:01;;;;;;;6.40;5.10;;;;;;;25.71;48.87;100603.04;106991;1283;61925;-85
2022/06/14 11:44:35;;;;;;;6.20;4.90;;;;;;;25.72;49.26;100606.96;106826;1282;62076;-84
2022/06/14 11:47:26;;;;;;;6.60;4.90;;;;;;;25.72;48.96;100609.83;107042;1283;74115;-83
2022/06/14 11:50:16;;;;;;;6.00;4.90;;;;;;;25.72;49.02;100608.38;106992;1283;77001;-83
2022/06/14 11:52:59;;;;;;;5.50;4.60;;;;;;;25.72;48.97;100607.34;107127;1281;62009;-84
2022/06/14 11:55:36;;;;;;;6.50;4.70;;;;;;;25.72;48.94;100614.22;107173;1281;62411;-82
2022/06/14 11:58:08;;;;;;;8.10;4.90;;;;;;;25.72;48.70;100614.18;106968;1281;72724;-85
2022/06/14 12:01:02;;;;;;;7.40;5.20;;;;;;;25.72;48.83;100615.48;107152;1281;75940;-83
2022/06/14 12:03:46;;;;;;;5.60;4.90;;;;;;;25.71;48.80;100617.70;107144;1283;62606;-84
2022/06/14 12:06:21;;;;;;;7.50;4.70;;;;;;;25.71;48.75;100617.68;107182;1283;62108;-83
2022/06/14 12:09:31;;;;;;;6.40;4.50;;;;;;;25.71;48.78;100615.36;106940;1282;73929;-84
2022/06/14 12:12:03;;;;;;;6.60;4.80;;;;;;;25.70;48.86;100616.16;107183;1283;76510;-84
2022/06/14 12:14:59;;;;;;;5.90;4.90;;;;;;;25.71;48.81;100615.40;106884;1283;61950;-84
2022/06/14 12:17:30;;;;;;;7.20;5.10;;;;;;;25.70;48.64;100614.70;106935;1283;62670;-84
2022/06/14 12:20:12;;;;;;;6.80;4.80;;;;;;;25.70;48.56;100615.81;106975;1283;72883;-82